Preview of NWS' New Version of Forecast
This preview is not operational and should not be used for support decisions.

Terminal Aerodrome Forecast (TAF)

Issued by National Weather Service (NWS)

                            
525 
FTUS42 KMFL 230542
TAFMIA
TAF
KMIA 230542Z 2306/2412 09009KT P6SM SCT025 SCT040
     FM231400 11015G25KT P6SM SCT025 SCT040 SCT250
     FM240000 09010KT P6SM FEW025 SCT040=